Terminal Aerodrome Forecast
Issued by NWS

Home | Current Version | Previous Version | Text Only | Print | Product List | Glossary On
Versions: 1 2 3 4 5 6 7 8 9 10 11 12 13 14 15
912
FTUS46 KMFR 301126
TAFRBG
TAF
KRBG 301126Z 3012/0112 VRB03KT P6SM -SHRA SCT025 OVC035
     FM301400 VRB03KT P6SM VCSH OVC015
     FM301800 35005KT P6SM SCT015 BKN030
     FM302200 36008KT P6SM SCT040
     FM010300 35002KT P6SM SKC=

USA.gov is the U.S. government's official web portal to all federal, state and local government web resources and services.